Time;durP1;ratioP1;P1;durP2;ratioP2;P2;SDS_P1;SDS_P2;PMS_P1;PMS_P2;Temp;Humidity;BMP_temperature;BMP_pressure;BME280_temperature;BME280_humidity;BME280_pressure;Samples;Min_cycle;Max_cycle;Signal;HPM_P1;HPM_P2
2022/05/20 00:01:53;;;;;;;11.68;3.83;;;;;;;;;;4985660;28;20041;-73
2022/05/20 00:04:19;;;;;;;9.48;3.65;;;;;;;;;;4982342;28;20429;-72
2022/05/20 00:06:45;;;;;;;5.18;3.13;;;;;;;;;;4983070;28;20166;-73
2022/05/20 00:09:11;;;;;;;8.98;3.75;;;;;;;;;;4985444;28;20038;-73
2022/05/20 00:11:37;;;;;;;8.65;3.38;;;;;;;;;;4981205;28;20026;-72
2022/05/20 00:14:05;;;;;;;10.85;3.60;;;;;;;;;;4985527;28;20038;-72
2022/05/20 00:16:31;;;;;;;7.88;3.45;;;;;;;;;;4985457;28;20048;-72
2022/05/20 00:18:57;;;;;;;6.43;3.63;;;;;;;;;;4984491;28;20127;-72
2022/05/20 00:21:23;;;;;;;9.23;3.80;;;;;;;;;;4980849;28;20081;-72
2022/05/20 00:23:49;;;;;;;7.43;3.47;;;;;;;;;;4993098;28;20489;-72
2022/05/20 00:26:15;;;;;;;7.72;3.90;;;;;;;;;;4994984;28;20035;-72
2022/05/20 00:28:43;;;;;;;8.18;3.83;;;;;;;;;;4984044;28;20403;-72
2022/05/20 00:31:10;;;;;;;6.85;3.90;;;;;;;;;;4980984;28;20104;-72
2022/05/20 00:33:37;;;;;;;8.13;4.10;;;;;;;;;;4982124;28;20041;-72
2022/05/20 00:36:04;;;;;;;9.02;4.07;;;;;;;;;;4977728;28;20077;-73
2022/05/20 00:38:30;;;;;;;10.95;3.65;;;;;;;;;;4985775;28;20042;-72
2022/05/20 00:40:58;;;;;;;7.30;3.97;;;;;;;;;;4981186;28;20030;-72
2022/05/20 00:43:29;;;;;;;9.27;3.85;;;;;;;;;;4982287;28;20056;-72
2022/05/20 00:45:56;;;;;;;7.57;3.72;;;;;;;;;;4983427;28;20183;-72
2022/05/20 00:48:22;;;;;;;11.90;3.70;;;;;;;;;;4982986;28;20068;-72
2022/05/20 00:50:51;;;;;;;9.02;4.45;;;;;;;;;;4995601;28;20038;-72
2022/05/20 00:53:19;;;;;;;8.95;3.75;;;;;;;;;;4979306;28;20118;-72
2022/05/20 00:55:46;;;;;;;9.18;4.38;;;;;;;;;;4985801;28;20427;-73
2022/05/20 00:58:16;;;;;;;11.98;4.30;;;;;;;;;;4984079;28;20042;-72
2022/05/20 01:00:44;;;;;;;8.65;3.70;;;;;;;;;;4984093;28;20086;-72
2022/05/20 01:03:12;;;;;;;6.75;4.10;;;;;;;;;;4984333;28;20538;-72
2022/05/20 01:05:39;;;;;;;9.20;4.30;;;;;;;;;;4979828;28;20031;-72
2022/05/20 01:08:07;;;;;;;8.32;3.85;;;;;;;;;;4983113;28;20042;-72
2022/05/20 01:10:33;;;;;;;9.98;3.95;;;;;;;;;;4980923;28;20041;-72
2022/05/20 01:12:59;;;;;;;11.68;4.18;;;;;;;;;;4980150;28;20038;-72
2022/05/20 01:15:26;;;;;;;14.57;4.88;;;;;;;;;;4985271;28;20495;-72
2022/05/20 01:17:53;;;;;;;8.30;4.50;;;;;;;;;;4981754;28;20543;-72
2022/05/20 01:20:22;;;;;;;10.73;5.00;;;;;;;;;;4981950;28;20074;-72
2022/05/20 01:22:54;;;;;;;8.63;3.80;;;;;;;;;;4980634;28;20053;-72
2022/05/20 01:25:21;;;;;;;9.40;4.22;;;;;;;;;;4981954;28;20039;-73
2022/05/20 01:27:47;;;;;;;10.57;4.60;;;;;;;;;;4994540;28;20097;-72
2022/05/20 01:30:15;;;;;;;11.18;4.47;;;;;;;;;;4981082;28;20038;-72
2022/05/20 01:32:41;;;;;;;9.65;4.72;;;;;;;;;;4978523;28;20042;-72
2022/05/20 01:35:10;;;;;;;8.52;4.60;;;;;;;;;;4983920;28;20038;-72
2022/05/20 01:37:36;;;;;;;8.00;3.80;;;;;;;;;;4983630;28;20041;-72
2022/05/20 01:40:02;;;;;;;8.48;4.15;;;;;;;;;;4982919;28;20034;-72
2022/05/20 01:42:37;;;;;;;7.10;3.75;;;;;;;;;;4999107;28;20084;-73
2022/05/20 01:45:09;;;;;;;8.25;3.47;;;;;;;;;;4982508;28;20038;-72
2022/05/20 01:47:48;;;;;;;7.15;3.75;;;;;;;;;;4980867;28;20031;-72
2022/05/20 01:50:26;;;;;;;8.60;4.00;;;;;;;;;;4978962;28;20041;-72
2022/05/20 01:52:54;;;;;;;9.57;4.45;;;;;;;;;;4981586;28;20026;-73
2022/05/20 01:55:35;;;;;;;9.00;4.38;;;;;;;;;;4991974;28;20042;-72
2022/05/20 01:58:17;;;;;;;8.98;3.95;;;;;;;;;;4981845;28;20065;-73
2022/05/20 02:00:44;;;;;;;11.23;4.55;;;;;;;;;;4977616;28;20038;-72
2022/05/20 02:03:17;;;;;;;6.95;4.43;;;;;;;;;;4994178;28;20042;-72
2022/05/20 02:06:18;;;;;;;9.70;4.47;;;;;;;;;;4977656;28;20693;-72
2022/05/20 02:08:50;;;;;;;9.88;4.00;;;;;;;;;;4943378;28;20039;-72
2022/05/20 02:11:23;;;;;;;7.95;3.88;;;;;;;;;;4977240;28;20057;-72
2022/05/20 02:13:59;;;;;;;8.05;4.50;;;;;;;;;;4978185;28;20038;-72
2022/05/20 02:16:28;;;;;;;7.93;4.22;;;;;;;;;;4982229;28;20034;-73
2022/05/20 02:19:00;;;;;;;10.48;4.95;;;;;;;;;;4977389;28;20030;-72
2022/05/20 02:21:28;;;;;;;13.10;4.88;;;;;;;;;;4981524;28;20046;-72
2022/05/20 02:23:56;;;;;;;8.23;4.88;;;;;;;;;;4982921;28;20034;-72
2022/05/20 02:26:24;;;;;;;10.15;4.47;;;;;;;;;;4980252;28;20034;-72
2022/05/20 02:28:53;;;;;;;10.63;4.70;;;;;;;;;;4978637;28;20062;-73
2022/05/20 02:31:23;;;;;;;13.27;4.30;;;;;;;;;;4978696;28;20495;-72
2022/05/20 02:33:50;;;;;;;9.55;4.45;;;;;;;;;;4977395;28;20066;-72
2022/05/20 02:36:28;;;;;;;8.30;4.18;;;;;;;;;;4998227;28;20069;-72
2022/05/20 02:38:54;;;;;;;10.32;4.72;;;;;;;;;;4980343;28;20035;-72
2022/05/20 02:41:20;;;;;;;9.63;4.72;;;;;;;;;;4995550;28;20046;-72
2022/05/20 02:43:46;;;;;;;10.30;4.68;;;;;;;;;;4982267;28;20042;-72
2022/05/20 02:46:13;;;;;;;9.68;4.95;;;;;;;;;;4981154;28;20551;-72
2022/05/20 02:48:39;;;;;;;6.95;4.28;;;;;;;;;;4982629;28;20102;-72
2022/05/20 02:51:05;;;;;;;9.18;4.30;;;;;;;;;;4982266;28;20034;-72
2022/05/20 02:53:31;;;;;;;10.95;4.35;;;;;;;;;;4976551;28;20096;-73
2022/05/20 02:55:57;;;;;;;9.15;4.22;;;;;;;;;;4980388;28;20041;-72
2022/05/20 03:04:10;;;;;;;8.80;5.05;;;;;;;;;;4981604;28;20551;-72
2022/05/20 03:06:43;;;;;;;9.10;3.88;;;;;;;;;;4984844;28;20141;-72
2022/05/20 03:09:10;;;;;;;8.73;4.32;;;;;;;;;;4984164;28;20043;-72
2022/05/20 03:11:39;;;;;;;9.57;4.68;;;;;;;;;;4981578;28;20030;-72
2022/05/20 03:14:05;;;;;;;9.43;4.57;;;;;;;;;;4984016;28;20106;-73
2022/05/20 03:16:31;;;;;;;12.20;4.88;;;;;;;;;;4981593;28;20034;-73
2022/05/20 03:18:58;;;;;;;10.43;4.90;;;;;;;;;;4983991;28;20038;-72
2022/05/20 03:21:24;;;;;;;10.25;5.13;;;;;;;;;;4981262;28;20034;-73
2022/05/20 03:23:50;;;;;;;10.32;4.60;;;;;;;;;;4986642;28;20039;-72
2022/05/20 03:26:16;;;;;;;9.85;4.57;;;;;;;;;;4984733;28;20154;-72
2022/05/20 03:28:45;;;;;;;10.40;4.82;;;;;;;;;;4984070;28;20141;-72
2022/05/20 03:31:12;;;;;;;11.05;5.30;;;;;;;;;;4983809;28;20034;-73
2022/05/20 03:33:40;;;;;;;8.80;5.05;;;;;;;;;;4984186;28;20034;-72
2022/05/20 03:36:06;;;;;;;16.70;5.93;;;;;;;;;;4985278;28;20053;-73
2022/05/20 03:38:33;;;;;;;7.00;4.13;;;;;;;;;;4983068;28;20045;-72
2022/05/20 03:40:59;;;;;;;11.77;5.63;;;;;;;;;;4985268;28;20046;-73
2022/05/20 03:43:26;;;;;;;8.35;4.97;;;;;;;;;;4985540;28;20034;-72
2022/05/20 03:45:52;;;;;;;10.07;4.93;;;;;;;;;;4983170;28;20062;-72
2022/05/20 03:48:18;;;;;;;12.18;4.70;;;;;;;;;;4983551;28;20046;-72
2022/05/20 03:50:44;;;;;;;10.63;5.05;;;;;;;;;;4984700;28;20037;-73
2022/05/20 03:53:10;;;;;;;10.40;4.82;;;;;;;;;;4980955;28;20030;-72
2022/05/20 03:55:36;;;;;;;15.07;5.50;;;;;;;;;;4975383;28;20722;-72
2022/05/20 03:58:02;;;;;;;11.60;4.88;;;;;;;;;;4981111;28;20034;-72
2022/05/20 04:00:28;;;;;;;13.32;5.40;;;;;;;;;;4982103;28;20042;-72
2022/05/20 04:02:54;;;;;;;14.43;5.07;;;;;;;;;;4983601;28;20031;-73
2022/05/20 04:05:20;;;;;;;10.15;4.85;;;;;;;;;;4981332;28;20487;-72
2022/05/20 04:07:46;;;;;;;11.00;4.40;;;;;;;;;;4984303;28;20045;-72
2022/05/20 04:10:12;;;;;;;10.55;4.97;;;;;;;;;;4981188;28;20030;-72
2022/05/20 04:12:42;;;;;;;10.25;4.35;;;;;;;;;;4983444;28;20108;-72
2022/05/20 04:15:09;;;;;;;8.55;4.00;;;;;;;;;;4985746;28;20033;-72
2022/05/20 04:17:36;;;;;;;14.63;4.88;;;;;;;;;;4984474;28;20035;-72
2022/05/20 04:20:03;;;;;;;12.38;4.43;;;;;;;;;;4982079;28;20113;-73
2022/05/20 04:22:30;;;;;;;10.90;4.85;;;;;;;;;;4983126;28;20704;-72
2022/05/20 04:24:57;;;;;;;7.95;4.43;;;;;;;;;;4982243;28;20034;-72
2022/05/20 04:27:23;;;;;;;9.23;4.82;;;;;;;;;;4983544;28;20035;-72
2022/05/20 04:29:49;;;;;;;9.07;4.28;;;;;;;;;;4983036;28;20042;-72
2022/05/20 04:32:16;;;;;;;9.93;4.93;;;;;;;;;;4985634;28;20030;-72
2022/05/20 04:34:42;;;;;;;11.13;5.20;;;;;;;;;;4984935;28;20034;-72
2022/05/20 04:37:08;;;;;;;9.63;5.43;;;;;;;;;;4982043;28;20030;-72
2022/05/20 04:39:34;;;;;;;10.50;4.55;;;;;;;;;;4981338;28;20034;-72
2022/05/20 04:47:30;;;;;;;9.80;4.78;;;;;;;;;;4983862;28;20061;-72
2022/05/20 04:49:56;;;;;;;15.90;4.82;;;;;;;;;;4982665;28;20113;-71
2022/05/20 04:52:23;;;;;;;12.88;4.68;;;;;;;;;;4982939;28;20035;-73
2022/05/20 04:54:49;;;;;;;13.90;4.93;;;;;;;;;;4980183;28;20490;-72
2022/05/20 04:57:29;;;;;;;13.57;4.72;;;;;;;;;;4983582;28;20040;-74
2022/05/20 05:00:05;;;;;;;11.57;4.40;;;;;;;;;;4978571;28;20064;-72
2022/05/20 05:02:31;;;;;;;8.50;4.75;;;;;;;;;;4982016;28;20026;-72
2022/05/20 05:04:57;;;;;;;12.10;4.82;;;;;;;;;;4980767;28;20031;-73
2022/05/20 05:07:24;;;;;;;14.18;5.03;;;;;;;;;;4983688;28;20736;-73
2022/05/20 05:09:50;;;;;;;13.15;4.22;;;;;;;;;;4985110;28;20372;-72
2022/05/20 05:12:16;;;;;;;20.15;4.03;;;;;;;;;;4984145;28;20035;-72
2022/05/20 05:14:44;;;;;;;9.93;4.05;;;;;;;;;;4983545;28;20710;-72
2022/05/20 05:17:11;;;;;;;9.82;4.63;;;;;;;;;;4980864;28;20216;-72
2022/05/20 05:19:38;;;;;;;10.88;4.72;;;;;;;;;;4981834;28;20034;-72
2022/05/20 05:22:05;;;;;;;13.77;5.20;;;;;;;;;;4979090;28;20034;-72
2022/05/20 05:24:31;;;;;;;11.63;4.50;;;;;;;;;;4984211;28;20141;-73
2022/05/20 05:26:57;;;;;;;12.32;3.83;;;;;;;;;;4983430;28;20527;-72
2022/05/20 05:29:23;;;;;;;11.20;4.05;;;;;;;;;;4982894;28;20501;-72
2022/05/20 05:31:49;;;;;;;12.20;3.88;;;;;;;;;;4980936;28;20037;-72
2022/05/20 05:34:15;;;;;;;9.25;3.67;;;;;;;;;;4985645;28;20141;-72
2022/05/20 05:36:41;;;;;;;12.57;4.75;;;;;;;;;;4980195;28;20088;-72
2022/05/20 05:39:08;;;;;;;13.73;5.07;;;;;;;;;;4984692;28;20042;-72
2022/05/20 05:41:34;;;;;;;9.82;4.03;;;;;;;;;;4982575;28;20045;-72
2022/05/20 05:44:02;;;;;;;13.25;4.78;;;;;;;;;;4981923;28;20041;-72
2022/05/20 05:46:28;;;;;;;14.98;5.18;;;;;;;;;;4981111;28;20034;-72
2022/05/20 05:48:54;;;;;;;13.57;4.82;;;;;;;;;;4981149;28;20069;-72
2022/05/20 05:51:20;;;;;;;13.13;3.85;;;;;;;;;;4978267;28;20141;-72
2022/05/20 05:53:47;;;;;;;15.90;4.45;;;;;;;;;;4984459;28;20807;-72
2022/05/20 05:56:13;;;;;;;13.15;3.78;;;;;;;;;;4983548;28;20030;-72
2022/05/20 05:58:39;;;;;;;8.90;3.70;;;;;;;;;;4983159;28;20034;-72
2022/05/20 06:01:05;;;;;;;12.77;3.55;;;;;;;;;;4975079;28;20045;-73
2022/05/20 06:03:31;;;;;;;10.10;4.13;;;;;;;;;;4975973;28;20073;-72
2022/05/20 06:05:57;;;;;;;9.93;3.92;;;;;;;;;;4974946;28;20054;-72
2022/05/20 06:08:24;;;;;;;7.97;3.70;;;;;;;;;;4974425;28;20708;-72
2022/05/20 06:10:50;;;;;;;12.75;4.70;;;;;;;;;;4981147;28;20030;-72
2022/05/20 06:13:23;;;;;;;11.05;4.03;;;;;;;;;;4979999;28;20037;-72
2022/05/20 06:15:49;;;;;;;10.18;4.18;;;;;;;;;;4978830;28;20121;-72
2022/05/20 06:18:15;;;;;;;12.20;3.80;;;;;;;;;;4984006;28;20078;-72
2022/05/20 06:20:41;;;;;;;8.50;3.55;;;;;;;;;;4981928;28;20475;-72
2022/05/20 06:23:07;;;;;;;8.35;3.65;;;;;;;;;;4983901;28;20041;-72
2022/05/20 06:25:33;;;;;;;8.35;3.72;;;;;;;;;;4973520;28;20034;-72
2022/05/20 06:28:09;;;;;;;10.65;3.63;;;;;;;;;;4983969;28;20140;-72
2022/05/20 06:30:36;;;;;;;9.90;3.83;;;;;;;;;;4983987;28;20133;-72
2022/05/20 06:33:02;;;;;;;10.40;3.83;;;;;;;;;;4977389;28;20027;-72
2022/05/20 06:40:59;;;;;;;13.15;3.78;;;;;;;;;;4987837;28;20045;-72
2022/05/20 06:43:26;;;;;;;10.07;3.72;;;;;;;;;;4981410;28;20034;-72
2022/05/20 06:45:53;;;;;;;8.00;3.83;;;;;;;;;;4983907;28;20616;-72
2022/05/20 06:48:19;;;;;;;8.43;3.55;;;;;;;;;;4987442;28;20039;-72
2022/05/20 06:50:45;;;;;;;15.52;3.72;;;;;;;;;;4990309;28;20554;-72
2022/05/20 06:53:11;;;;;;;8.27;3.13;;;;;;;;;;4987700;28;20038;-72
2022/05/20 06:55:37;;;;;;;7.65;3.58;;;;;;;;;;4987689;28;20142;-72
2022/05/20 06:58:04;;;;;;;10.35;3.63;;;;;;;;;;4982716;28;20038;-72
2022/05/20 07:00:30;;;;;;;13.38;4.22;;;;;;;;;;4989987;28;20454;-72
2022/05/20 07:02:56;;;;;;;12.00;4.30;;;;;;;;;;4989256;28;20499;-72
2022/05/20 07:05:22;;;;;;;10.05;4.22;;;;;;;;;;4987261;28;20039;-73
2022/05/20 07:07:48;;;;;;;12.85;3.97;;;;;;;;;;4985511;28;20042;-73
2022/05/20 07:10:16;;;;;;;12.52;3.80;;;;;;;;;;4984131;28;20849;-72
2022/05/20 07:12:42;;;;;;;9.27;3.60;;;;;;;;;;4986261;28;20685;-72
2022/05/20 07:15:08;;;;;;;12.18;3.88;;;;;;;;;;4984707;28;20042;-72
2022/05/20 07:17:35;;;;;;;9.38;3.65;;;;;;;;;;4981598;28;20035;-72
2022/05/20 07:20:01;;;;;;;8.25;3.42;;;;;;;;;;4983740;28;20026;-72
2022/05/20 07:22:27;;;;;;;8.45;3.15;;;;;;;;;;4985216;28;20038;-72
2022/05/20 07:24:55;;;;;;;7.63;3.60;;;;;;;;;;4980411;28;20038;-72
2022/05/20 07:27:21;;;;;;;12.30;3.20;;;;;;;;;;4986321;28;20428;-72
2022/05/20 07:29:47;;;;;;;13.52;3.38;;;;;;;;;;4984885;28;20129;-72
2022/05/20 07:32:13;;;;;;;8.27;3.17;;;;;;;;;;4979401;28;20039;-72
2022/05/20 07:34:39;;;;;;;8.38;3.20;;;;;;;;;;4973754;28;20670;-72
2022/05/20 07:37:05;;;;;;;7.28;3.58;;;;;;;;;;4983291;28;20085;-72
2022/05/20 07:39:31;;;;;;;12.13;3.83;;;;;;;;;;4981784;28;20125;-72
2022/05/20 07:41:57;;;;;;;17.95;4.00;;;;;;;;;;4984146;28;20032;-73
2022/05/20 07:44:23;;;;;;;8.38;3.22;;;;;;;;;;4980069;28;20058;-72
2022/05/20 07:46:49;;;;;;;8.32;3.38;;;;;;;;;;4982276;28;20057;-73
2022/05/20 07:49:15;;;;;;;10.25;3.22;;;;;;;;;;4981305;28;20135;-72
2022/05/20 07:51:45;;;;;;;7.40;2.97;;;;;;;;;;4987226;28;20030;-72
2022/05/20 07:54:13;;;;;;;15.98;3.72;;;;;;;;;;4985117;28;20113;-73
2022/05/20 07:56:41;;;;;;;9.00;3.40;;;;;;;;;;4989512;28;20034;-73
2022/05/20 07:59:15;;;;;;;8.20;3.40;;;;;;;;;;4991295;28;20049;-72
2022/05/20 08:01:42;;;;;;;12.18;3.67;;;;;;;;;;4986949;28;20033;-73
2022/05/20 08:06:59;;;;;;;7.95;3.30;;;;;;;;;;4991088;28;20101;-73
2022/05/20 08:09:26;;;;;;;8.95;3.72;;;;;;;;;;4992326;28;20122;-72
2022/05/20 08:11:52;;;;;;;8.05;3.22;;;;;;;;;;4986708;28;20049;-72
2022/05/20 08:14:18;;;;;;;6.22;3.08;;;;;;;;;;4984543;28;20097;-72
2022/05/20 08:16:44;;;;;;;5.93;2.95;;;;;;;;;;4988449;28;20030;-72
2022/05/20 08:19:10;;;;;;;6.72;2.90;;;;;;;;;;4987792;28;20089;-72
2022/05/20 08:21:36;;;;;;;8.98;3.00;;;;;;;;;;4990515;28;20022;-72
2022/05/20 08:24:03;;;;;;;9.55;3.17;;;;;;;;;;4984517;28;20042;-72
2022/05/20 08:26:29;;;;;;;10.18;3.38;;;;;;;;;;4983668;28;20138;-72
2022/05/20 08:28:55;;;;;;;6.28;2.80;;;;;;;;;;4987525;28;20112;-72
2022/05/20 08:31:22;;;;;;;10.15;2.95;;;;;;;;;;4987639;28;20459;-72
2022/05/20 08:33:50;;;;;;;8.00;3.08;;;;;;;;;;4988153;28;20133;-73
2022/05/20 08:36:16;;;;;;;10.55;3.75;;;;;;;;;;4982925;28;20037;-72
2022/05/20 08:38:42;;;;;;;6.80;3.15;;;;;;;;;;4988851;28;20046;-72
2022/05/20 08:41:12;;;;;;;11.63;3.25;;;;;;;;;;4989408;28;20045;-72
2022/05/20 08:43:38;;;;;;;11.88;3.17;;;;;;;;;;4986561;28;20043;-72
2022/05/20 08:46:07;;;;;;;9.93;3.80;;;;;;;;;;4985132;28;20022;-72
2022/05/20 08:48:33;;;;;;;6.88;3.00;;;;;;;;;;4985781;28;20035;-72
2022/05/20 08:51:01;;;;;;;6.53;2.67;;;;;;;;;;4987101;28;20121;-72
2022/05/20 08:53:27;;;;;;;7.28;3.10;;;;;;;;;;4987101;28;20030;-72
2022/05/20 08:55:54;;;;;;;9.23;2.95;;;;;;;;;;4986326;28;20022;-73
2022/05/20 08:58:21;;;;;;;7.43;2.63;;;;;;;;;;4988301;28;20140;-72
2022/05/20 09:00:48;;;;;;;8.95;3.03;;;;;;;;;;4982436;28;20027;-72
2022/05/20 09:03:14;;;;;;;12.05;3.20;;;;;;;;;;4986081;28;20396;-72
2022/05/20 09:05:41;;;;;;;10.98;3.63;;;;;;;;;;4988146;28;20453;-72
2022/05/20 09:08:19;;;;;;;8.75;3.30;;;;;;;;;;4986609;28;20507;-72
2022/05/20 09:10:45;;;;;;;11.05;3.10;;;;;;;;;;4999168;28;20029;-72
2022/05/20 09:13:13;;;;;;;10.18;3.55;;;;;;;;;;4983929;28;20077;-72
2022/05/20 09:15:49;;;;;;;9.02;3.00;;;;;;;;;;4986391;28;20038;-72
2022/05/20 09:18:18;;;;;;;9.52;3.38;;;;;;;;;;4988173;28;20072;-72
2022/05/20 09:20:44;;;;;;;13.82;3.47;;;;;;;;;;4985624;28;20036;-72
2022/05/20 09:23:11;;;;;;;12.93;3.60;;;;;;;;;;4979695;28;20038;-72
2022/05/20 09:25:46;;;;;;;10.38;3.40;;;;;;;;;;4985349;28;20030;-72
2022/05/20 09:28:21;;;;;;;13.00;3.22;;;;;;;;;;4985481;28;20476;-72
2022/05/20 09:30:49;;;;;;;12.73;3.70;;;;;;;;;;4986906;28;20092;-72
2022/05/20 09:33:23;;;;;;;8.52;3.40;;;;;;;;;;4982941;28;20085;-72
2022/05/20 09:35:57;;;;;;;13.07;3.65;;;;;;;;;;4983582;28;20135;-72
2022/05/20 09:38:30;;;;;;;9.77;3.45;;;;;;;;;;4982363;28;22044;-72
2022/05/20 09:40:56;;;;;;;11.98;3.40;;;;;;;;;;4983114;28;20065;-72
2022/05/20 09:43:22;;;;;;;10.35;3.10;;;;;;;;;;4988833;28;20038;-73
2022/05/20 09:45:49;;;;;;;8.77;3.22;;;;;;;;;;4983865;28;20503;-72
2022/05/20 09:48:34;;;;;;;10.30;3.13;;;;;;;;;;4984197;28;20468;-72
2022/05/20 09:51:12;;;;;;;9.70;3.38;;;;;;;;;;4983322;28;20030;-72
2022/05/20 09:53:40;;;;;;;10.93;3.50;;;;;;;;;;4979195;28;20177;-72
2022/05/20 09:56:33;;;;;;;11.02;3.30;;;;;;;;;;4975766;28;20054;-73
2022/05/20 09:58:59;;;;;;;10.43;3.60;;;;;;;;;;4979480;28;20557;-72
2022/05/20 10:01:27;;;;;;;12.30;4.05;;;;;;;;;;4984920;28;20035;-73
2022/05/20 10:03:57;;;;;;;13.48;3.80;;;;;;;;;;4985256;28;20066;-72
2022/05/20 10:06:32;;;;;;;16.17;4.10;;;;;;;;;;4980468;28;20046;-72
2022/05/20 10:09:01;;;;;;;9.93;3.70;;;;;;;;;;4984233;28;20070;-72
2022/05/20 10:11:27;;;;;;;11.00;3.00;;;;;;;;;;4985266;28;20117;-72
2022/05/20 10:13:59;;;;;;;14.57;3.72;;;;;;;;;;4988919;28;20053;-73
2022/05/20 10:16:41;;;;;;;12.52;3.40;;;;;;;;;;4985041;28;20034;-72
2022/05/20 10:19:11;;;;;;;13.38;4.00;;;;;;;;;;4982296;28;20465;-72
2022/05/20 10:21:55;;;;;;;13.77;3.42;;;;;;;;;;4985732;28;20037;-72
2022/05/20 10:24:24;;;;;;;8.98;3.22;;;;;;;;;;4983368;28;20126;-72
2022/05/20 10:26:56;;;;;;;11.27;3.92;;;;;;;;;;4988576;28;20037;-72
2022/05/20 10:32:34;;;;;;;11.90;3.40;;;;;;;;;;4985243;28;20045;-72
2022/05/20 10:35:01;;;;;;;12.45;3.65;;;;;;;;;;4980011;28;20113;-72
2022/05/20 10:37:49;;;;;;;9.80;3.13;;;;;;;;;;4983178;28;20031;-72
2022/05/20 10:40:33;;;;;;;7.57;3.53;;;;;;;;;;4987019;28;20676;-72
2022/05/20 10:43:18;;;;;;;10.00;3.92;;;;;;;;;;4974914;28;20130;-72
2022/05/20 10:49:04;;;;;;;8.20;3.58;;;;;;;;;;4988406;28;20545;-72
2022/05/20 10:51:39;;;;;;;9.43;3.70;;;;;;;;;;4971116;28;20078;-72
2022/05/20 10:54:06;;;;;;;19.95;3.55;;;;;;;;;;4983301;28;20049;-72
2022/05/20 10:56:40;;;;;;;9.45;3.22;;;;;;;;;;4983040;28;20037;-73
2022/05/20 10:59:21;;;;;;;10.52;3.10;;;;;;;;;;4983390;28;20472;-72
2022/05/20 11:01:54;;;;;;;9.30;3.47;;;;;;;;;;4975861;28;20044;-72
2022/05/20 11:04:39;;;;;;;11.32;2.92;;;;;;;;;;4985730;28;20054;-72
2022/05/20 11:07:17;;;;;;;10.35;3.78;;;;;;;;;;4985061;28;20093;-72
2022/05/20 11:09:43;;;;;;;10.25;3.00;;;;;;;;;;4981823;28;20142;-72
2022/05/20 11:12:16;;;;;;;8.30;2.92;;;;;;;;;;4982924;28;20462;-72
2022/05/20 11:15:01;;;;;;;9.30;2.78;;;;;;;;;;4984824;28;20039;-72
2022/05/20 11:17:33;;;;;;;7.55;3.20;;;;;;;;;;4982861;28;20046;-73
2022/05/20 11:20:03;;;;;;;7.82;3.00;;;;;;;;;;4988292;28;20041;-72
2022/05/20 11:22:32;;;;;;;7.78;2.90;;;;;;;;;;4987797;28;20038;-71
2022/05/20 11:25:01;;;;;;;5.70;2.38;;;;;;;;;;4988533;28;20511;-73
2022/05/20 11:27:27;;;;;;;9.00;3.08;;;;;;;;;;4993878;28;20037;-72
2022/05/20 11:30:11;;;;;;;11.00;2.95;;;;;;;;;;4986449;28;20027;-72
2022/05/20 11:32:37;;;;;;;10.45;3.15;;;;;;;;;;4987610;28;20046;-73
2022/05/20 11:35:15;;;;;;;8.57;2.85;;;;;;;;;;4988488;28;20483;-73
2022/05/20 11:37:59;;;;;;;8.85;3.03;;;;;;;;;;4984590;28;20042;-73
2022/05/20 11:40:29;;;;;;;7.50;2.78;;;;;;;;;;4981212;28;20118;-73
2022/05/20 11:43:20;;;;;;;8.18;2.80;;;;;;;;;;4975089;28;20445;-73
2022/05/20 11:46:07;;;;;;;12.90;2.60;;;;;;;;;;4984802;28;20026;-73
2022/05/20 11:48:32;;;;;;;6.25;2.47;;;;;;;;;;4978336;28;20065;-72
2022/05/20 11:51:05;;;;;;;7.75;3.00;;;;;;;;;;4990328;28;20181;-73
2022/05/20 11:53:43;;;;;;;8.70;3.50;;;;;;;;;;4987977;28;20113;-72
2022/05/20 11:56:14;;;;;;;9.75;3.03;;;;;;;;;;4989468;28;20037;-72
2022/05/20 11:58:40;;;;;;;6.20;2.57;;;;;;;;;;4978407;28;20081;-72
2022/05/20 12:01:07;;;;;;;7.70;2.70;;;;;;;;;;4983642;28;20511;-72
2022/05/20 12:06:22;;;;;;;9.88;3.20;;;;;;;;;;4986342;28;20093;-72
2022/05/20 12:09:02;;;;;;;7.30;2.53;;;;;;;;;;4977421;28;20031;-72
2022/05/20 12:11:28;;;;;;;10.90;3.42;;;;;;;;;;4985295;28;20125;-72
2022/05/20 12:14:03;;;;;;;9.38;2.75;;;;;;;;;;4986263;28;20140;-73
2022/05/20 12:16:29;;;;;;;10.27;3.28;;;;;;;;;;4984187;28;20075;-72
2022/05/20 12:24:35;;;;;;;10.05;3.15;;;;;;;;;;4988298;28;20049;-72
2022/05/20 12:27:01;;;;;;;10.07;2.70;;;;;;;;;;4988919;28;20030;-72
2022/05/20 12:29:37;;;;;;;11.98;2.42;;;;;;;;;;4980613;28;20574;-72
2022/05/20 12:32:21;;;;;;;13.23;2.47;;;;;;;;;;4985649;28;20042;-72
2022/05/20 12:35:06;;;;;;;8.95;2.20;;;;;;;;;;4987418;28;20152;-72
2022/05/20 12:37:41;;;;;;;8.15;2.40;;;;;;;;;;4983501;28;20121;-72
2022/05/20 12:40:16;;;;;;;10.07;2.38;;;;;;;;;;4982309;28;20034;-72
2022/05/20 12:42:47;;;;;;;15.63;2.53;;;;;;;;;;4989453;28;20049;-72
2022/05/20 12:45:13;;;;;;;8.00;2.72;;;;;;;;;;4980627;28;20070;-72
2022/05/20 12:47:39;;;;;;;8.63;2.25;;;;;;;;;;4986114;28;20038;-72
2022/05/20 12:50:19;;;;;;;12.45;2.42;;;;;;;;;;4982523;28;20022;-72
2022/05/20 12:52:46;;;;;;;9.55;2.40;;;;;;;;;;4984740;28;20062;-72
2022/05/20 12:55:19;;;;;;;8.35;2.28;;;;;;;;;;4985372;28;20785;-72
2022/05/20 12:58:08;;;;;;;11.05;2.53;;;;;;;;;;4987146;28;20072;-72
2022/05/20 13:00:41;;;;;;;11.52;2.85;;;;;;;;;;4979589;28;20057;-72
2022/05/20 13:03:21;;;;;;;9.93;2.20;;;;;;;;;;4984484;28;20041;-72
2022/05/20 13:06:03;;;;;;;8.23;2.25;;;;;;;;;;4982979;28;20634;-72
2022/05/20 13:08:31;;;;;;;9.00;2.40;;;;;;;;;;5003320;28;20042;-72
2022/05/20 13:11:06;;;;;;;8.75;2.28;;;;;;;;;;4989794;28;20109;-72
2022/05/20 13:13:32;;;;;;;13.23;2.38;;;;;;;;;;4980510;28;20543;-72
2022/05/20 13:15:59;;;;;;;9.68;2.20;;;;;;;;;;4988904;28;20031;-72
2022/05/20 13:18:25;;;;;;;10.10;2.15;;;;;;;;;;4990095;28;20038;-72
2022/05/20 13:20:53;;;;;;;10.57;2.45;;;;;;;;;;4985790;28;20057;-72
2022/05/20 13:23:23;;;;;;;8.80;2.00;;;;;;;;;;4990245;28;20038;-72
2022/05/20 13:25:50;;;;;;;15.68;2.17;;;;;;;;;;4984347;28;20034;-72
2022/05/20 13:28:36;;;;;;;6.32;1.80;;;;;;;;;;4985722;28;20501;-72
2022/05/20 13:31:07;;;;;;;17.45;2.92;;;;;;;;;;4987651;28;20022;-72
2022/05/20 13:33:34;;;;;;;7.63;2.22;;;;;;;;;;4979058;28;20038;-73
2022/05/20 13:36:01;;;;;;;10.45;2.10;;;;;;;;;;4991612;28;20026;-72
2022/05/20 13:38:31;;;;;;;12.07;2.25;;;;;;;;;;4990142;28;20038;-72
2022/05/20 13:40:57;;;;;;;7.70;1.67;;;;;;;;;;4984570;28;20023;-72
2022/05/20 13:43:27;;;;;;;13.13;2.30;;;;;;;;;;4984776;28;20266;-71
2022/05/20 13:51:31;;;;;;;10.60;1.60;;;;;;;;;;4983616;28;20060;-72
2022/05/20 13:54:00;;;;;;;8.65;1.77;;;;;;;;;;4987349;28;20092;-71
2022/05/20 13:56:29;;;;;;;8.82;1.75;;;;;;;;;;4986190;28;20081;-72
2022/05/20 13:58:55;;;;;;;11.65;2.22;;;;;;;;;;4973732;28;20058;-71
2022/05/20 14:01:22;;;;;;;11.82;2.13;;;;;;;;;;4985414;28;20117;-72
2022/05/20 14:03:48;;;;;;;8.20;2.13;;;;;;;;;;4984521;28;20030;-72
2022/05/20 14:06:19;;;;;;;11.20;1.95;;;;;;;;;;5001236;28;20062;-71
2022/05/20 14:08:50;;;;;;;8.65;1.67;;;;;;;;;;4986881;28;20026;-72
2022/05/20 14:11:18;;;;;;;10.07;2.60;;;;;;;;;;4990579;28;20039;-72
2022/05/20 14:13:44;;;;;;;8.52;1.75;;;;;;;;;;4985581;28;20041;-71
2022/05/20 14:16:15;;;;;;;7.70;1.92;;;;;;;;;;4984791;28;20439;-72
2022/05/20 14:18:43;;;;;;;12.85;2.05;;;;;;;;;;4981631;28;20507;-72
2022/05/20 14:21:15;;;;;;;7.80;1.55;;;;;;;;;;4984926;28;20050;-72
2022/05/20 14:23:46;;;;;;;10.57;1.80;;;;;;;;;;4983970;28;20034;-71
2022/05/20 14:26:35;;;;;;;8.27;1.60;;;;;;;;;;4981396;28;20086;-72
2022/05/20 14:29:01;;;;;;;12.32;1.95;;;;;;;;;;4982767;28;20165;-72
2022/05/20 14:31:30;;;;;;;10.85;2.40;;;;;;;;;;4984328;28;20113;-71
2022/05/20 14:34:01;;;;;;;8.25;1.75;;;;;;;;;;4994829;28;20031;-71
2022/05/20 14:36:28;;;;;;;8.82;1.80;;;;;;;;;;4986952;28;20030;-72
2022/05/20 14:38:57;;;;;;;9.93;2.00;;;;;;;;;;4981595;28;21122;-72
2022/05/20 14:41:24;;;;;;;6.65;1.98;;;;;;;;;;4974980;28;20365;-72
2022/05/20 14:44:01;;;;;;;10.13;2.08;;;;;;;;;;4985160;28;20049;-72
2022/05/20 14:49:21;;;;;;;8.50;2.22;;;;;;;;;;4981295;28;20085;-72
2022/05/20 14:51:53;;;;;;;6.03;1.55;;;;;;;;;;4989481;28;20064;-71
2022/05/20 14:54:19;;;;;;;6.10;1.80;;;;;;;;;;4988446;28;20053;-71
2022/05/20 14:56:50;;;;;;;6.97;1.63;;;;;;;;;;4982956;28;20472;-72
2022/05/20 14:59:29;;;;;;;7.55;1.52;;;;;;;;;;4989186;28;20120;-72
2022/05/20 15:01:56;;;;;;;9.80;1.67;;;;;;;;;;4985514;28;20046;-72
2022/05/20 15:04:22;;;;;;;9.05;1.88;;;;;;;;;;4983068;28;20440;-72
2022/05/20 15:06:48;;;;;;;11.88;2.30;;;;;;;;;;4993416;28;20051;-71
2022/05/20 15:09:25;;;;;;;7.13;1.80;;;;;;;;;;4985059;28;20035;-72
2022/05/20 15:11:52;;;;;;;7.57;1.67;;;;;;;;;;4983867;28;20036;-72
2022/05/20 15:14:18;;;;;;;9.63;2.05;;;;;;;;;;4984398;28;20488;-72
2022/05/20 15:16:44;;;;;;;13.40;1.80;;;;;;;;;;4977361;28;20034;-71
2022/05/20 15:19:11;;;;;;;6.65;1.88;;;;;;;;;;4986824;28;20072;-72
2022/05/20 15:21:38;;;;;;;9.40;1.80;;;;;;;;;;4987797;28;20034;-72
2022/05/20 15:24:06;;;;;;;6.78;2.08;;;;;;;;;;4983454;28;20571;-71
2022/05/20 15:26:33;;;;;;;10.05;2.40;;;;;;;;;;4989695;28;20038;-71
2022/05/20 15:29:00;;;;;;;18.45;2.13;;;;;;;;;;4987051;28;20034;-71
2022/05/20 15:37:06;;;;;;;12.60;2.88;;;;;;;;;;4981689;28;20510;-71